Time;durP1;ratioP1;P1;durP2;ratioP2;P2;SDS_P1;SDS_P2;PMS_P1;PMS_P2;Temp;Humidity;BMP_temperature;BMP_pressure;BME280_temperature;BME280_humidity;BME280_pressure;Samples;Min_cycle;Max_cycle;Signal;HPM_P1;HPM_P2
2023/08/26 06:59:12;;;;;;;0.80;0.50;;;22.40;99.90;;;;;;4889132;23;20254;-72
2023/08/26 07:01:39;;;;;;;1.15;0.57;;;23.30;99.90;;;;;;4882006;29;20302;-72
2023/08/26 07:04:07;;;;;;;2.65;0.45;;;23.70;99.90;;;;;;4877451;29;20322;-72
2023/08/26 07:06:35;;;;;;;2.22;0.60;;;23.70;99.90;;;;;;4863680;29;20254;-72
2023/08/26 07:09:03;;;;;;;1.50;0.60;;;23.50;99.90;;;;;;4863558;29;20295;-71
2023/08/26 07:11:30;;;;;;;1.58;0.50;;;23.20;99.90;;;;;;4863403;29;20273;-72
2023/08/26 07:13:58;;;;;;;1.42;0.50;;;23.50;99.90;;;;;;4863391;29;20267;-72
2023/08/26 07:16:27;;;;;;;0.70;0.50;;;23.50;99.90;;;;;;4863393;29;20250;-72
2023/08/26 07:18:54;;;;;;;2.35;0.60;;;23.70;99.90;;;;;;4863163;29;20335;-72
2023/08/26 07:21:21;;;;;;;2.58;0.70;;;23.90;99.90;;;;;;4862989;29;20247;-72
2023/08/26 07:23:48;;;;;;;1.90;0.60;;;23.90;99.90;;;;;;4862301;29;20239;-72
2023/08/26 07:26:15;;;;;;;2.17;0.60;;;24.50;99.90;;;;;;4863125;29;20251;-73
2023/08/26 07:28:42;;;;;;;1.42;0.70;;;24.60;99.90;;;;;;4862929;29;20255;-72
2023/08/26 07:31:09;;;;;;;0.95;0.60;;;24.60;99.90;;;;;;4863227;29;20212;-73
2023/08/26 07:33:38;;;;;;;2.63;0.70;;;24.80;99.90;;;;;;4863103;29;20543;-73
2023/08/26 07:36:07;;;;;;;0.90;0.70;;;24.60;99.90;;;;;;4863137;29;20258;-72
2023/08/26 07:38:34;;;;;;;2.63;0.57;;;24.20;99.90;;;;;;4862801;29;20282;-73
2023/08/26 07:41:01;;;;;;;0.98;0.50;;;24.40;99.90;;;;;;4863046;29;20243;-73
2023/08/26 07:43:28;;;;;;;0.90;0.55;;;24.60;99.90;;;;;;4862692;29;20220;-72
2023/08/26 07:45:55;;;;;;;1.38;0.65;;;24.20;99.90;;;;;;4862706;29;20260;-72
2023/08/26 07:48:22;;;;;;;2.97;0.63;;;24.40;99.90;;;;;;4862761;29;20298;-72
2023/08/26 07:50:50;;;;;;;0.60;0.50;;;24.20;99.90;;;;;;4862819;29;20219;-73
2023/08/26 07:53:17;;;;;;;2.45;0.63;;;24.50;99.90;;;;;;4863062;29;20734;-72
2023/08/26 07:55:44;;;;;;;1.17;0.47;;;24.60;99.90;;;;;;4862727;29;20657;-71
2023/08/26 07:58:11;;;;;;;1.02;0.60;;;24.90;99.90;;;;;;4862438;29;20271;-73
2023/08/26 08:00:38;;;;;;;0.95;0.40;;;24.90;99.90;;;;;;4845774;29;20310;-71
2023/08/26 08:03:05;;;;;;;2.47;0.60;;;24.80;99.90;;;;;;4850863;29;20247;-70
2023/08/26 08:05:32;;;;;;;1.30;0.60;;;24.30;99.90;;;;;;4861020;29;20274;-71
2023/08/26 08:08:00;;;;;;;0.73;0.45;;;24.10;99.90;;;;;;4860950;29;20694;-69
2023/08/26 08:10:27;;;;;;;0.82;0.45;;;24.30;99.90;;;;;;4861044;29;20248;-72
2023/08/26 08:12:54;;;;;;;1.70;0.68;;;24.60;99.90;;;;;;4861017;29;20735;-70
2023/08/26 08:15:21;;;;;;;1.40;0.60;;;25.40;99.90;;;;;;4861011;29;20264;-71
2023/08/26 08:17:48;;;;;;;3.42;0.50;;;26.10;99.90;;;;;;4860873;29;20319;-76
2023/08/26 08:20:15;;;;;;;1.23;0.40;;;26.00;99.90;;;;;;4860946;29;20215;-72
2023/08/26 08:22:43;;;;;;;2.45;0.50;;;25.80;99.90;;;;;;4861116;29;20262;-74
2023/08/26 08:25:12;;;;;;;1.48;0.45;;;26.30;99.90;;;;;;4860859;29;20232;-71
2023/08/26 08:27:40;;;;;;;2.03;0.57;;;26.30;99.90;;;;;;4860979;29;20298;-72
2023/08/26 08:30:08;;;;;;;0.55;0.38;;;25.60;99.90;;;;;;4860313;29;20302;-72
2023/08/26 08:32:35;;;;;;;0.73;0.47;;;25.40;99.90;;;;;;4860353;29;20216;-75
2023/08/26 08:35:03;;;;;;;0.70;0.40;;;25.00;99.90;;;;;;4858802;29;20265;-71
2023/08/26 08:37:31;;;;;;;1.25;0.60;;;25.10;99.90;;;;;;4859511;29;20740;-75
2023/08/26 08:39:58;;;;;;;0.75;0.50;;;25.50;99.90;;;;;;4859776;29;20264;-81
2023/08/26 08:42:27;;;;;;;1.25;0.60;;;25.60;99.90;;;;;;4861044;29;20581;-70
2023/08/26 08:44:56;;;;;;;2.10;0.45;;;25.30;99.90;;;;;;4859206;29;20328;-73
2023/08/26 08:47:23;;;;;;;0.40;0.40;;;25.20;99.90;;;;;;4861051;29;20636;-69
2023/08/26 08:49:50;;;;;;;0.90;0.40;;;24.80;99.90;;;;;;4861369;29;20306;-69
2023/08/26 08:52:20;;;;;;;1.25;0.60;;;24.60;99.90;;;;;;4855823;29;20214;-73
2023/08/26 08:54:55;;;;;;;2.38;0.50;;;24.20;99.90;;;;;;5102796;27;21071;-68
2023/08/26 08:57:27;;;;;;;1.50;0.60;;;24.10;99.90;;;;;;5108308;28;20297;-71
2023/08/26 08:59:58;;;;;;;2.20;0.70;;;24.20;99.90;;;;;;5108316;28;20229;-72
2023/08/26 09:02:27;;;;;;;1.15;0.57;;;24.50;99.90;;;;;;5090291;28;20745;-73
2023/08/26 09:04:54;;;;;;;1.23;0.45;;;24.70;99.90;;;;;;5090597;28;20318;-69
2023/08/26 09:07:22;;;;;;;0.75;0.45;;;24.50;99.90;;;;;;5103632;28;20242;-69
2023/08/26 09:09:49;;;;;;;1.05;0.43;;;24.10;99.90;;;;;;5093105;28;20203;-69
2023/08/26 09:12:17;;;;;;;1.67;0.50;;;24.30;99.90;;;;;;5099424;28;20241;-69
2023/08/26 09:14:44;;;;;;;1.52;0.50;;;24.30;99.90;;;;;;5101623;28;20720;-71
2023/08/26 09:17:18;;;;;;;2.50;0.50;;;24.10;99.90;;;;;;5089874;28;20253;-71
2023/08/26 09:19:55;;;;;;;1.10;0.50;;;24.20;99.90;;;;;;5089770;28;20695;-70
2023/08/26 09:22:25;;;;;;;1.13;0.50;;;24.10;99.90;;;;;;5089007;28;20297;-71
2023/08/26 09:24:55;;;;;;;2.13;0.40;;;24.00;99.90;;;;;;5101029;28;20261;-74
2023/08/26 09:27:24;;;;;;;0.90;0.52;;;24.00;99.90;;;;;;5089467;28;20209;-71
2023/08/26 09:29:51;;;;;;;0.75;0.40;;;24.00;99.90;;;;;;5089108;28;20297;-71
2023/08/26 09:32:32;;;;;;;1.27;0.43;;;23.90;99.90;;;;;;5099087;28;20233;-71
2023/08/26 09:35:09;;;;;;;1.23;0.52;;;23.60;99.90;;;;;;5109521;28;20241;-71
2023/08/26 09:37:36;;;;;;;1.13;0.40;;;23.40;99.90;;;;;;5107383;28;20674;-71
2023/08/26 09:40:04;;;;;;;0.82;0.40;;;23.30;99.90;;;;;;5091858;28;20207;-72
2023/08/26 09:42:32;;;;;;;0.45;0.30;;;23.20;99.90;;;;;;5089448;28;20241;-71
2023/08/26 09:44:59;;;;;;;1.27;0.40;;;23.20;99.90;;;;;;5099865;28;20226;-71
2023/08/26 09:47:29;;;;;;;1.13;0.50;;;23.00;99.90;;;;;;5101265;28;20245;-71
2023/08/26 09:49:55;;;;;;;3.42;0.68;;;22.90;99.90;;;;;;5093372;28;20233;-72
2023/08/26 09:52:22;;;;;;;0.50;0.40;;;22.60;99.90;;;;;;5092154;28;20339;-72
2023/08/26 09:54:50;;;;;;;2.05;0.52;;;22.50;99.90;;;;;;5109165;28;20640;-72
2023/08/26 09:57:17;;;;;;;1.02;0.70;;;22.30;99.90;;;;;;5106000;28;20237;-71
2023/08/26 09:59:45;;;;;;;0.70;0.40;;;22.20;99.90;;;;;;5089437;28;20231;-72
2023/08/26 10:02:20;;;;;;;0.70;0.30;;;22.20;99.90;;;;;;5088592;28;20246;-72
2023/08/26 10:04:48;;;;;;;0.73;0.50;;;22.10;99.90;;;;;;5095380;28;20569;-72
2023/08/26 10:07:15;;;;;;;1.58;0.40;;;22.00;99.90;;;;;;5075160;28;20235;-72
2023/08/26 10:09:47;;;;;;;1.38;0.50;;;22.20;99.90;;;;;;5088468;28;20234;-72
2023/08/26 10:12:21;;;;;;;0.77;0.35;;;21.90;99.90;;;;;;5077777;28;20203;-72
2023/08/26 10:14:52;;;;;;;0.50;0.47;;;22.00;99.90;;;;;;5086689;28;20696;-72
2023/08/26 10:17:22;;;;;;;0.47;0.38;;;22.10;99.90;;;;;;5075592;28;20207;-72
2023/08/26 10:19:49;;;;;;;0.93;0.55;;;22.20;99.90;;;;;;5075519;28;20246;-72
2023/08/26 10:22:16;;;;;;;1.00;0.38;;;22.70;99.90;;;;;;5075520;28;20234;-72
2023/08/26 10:24:45;;;;;;;1.08;0.50;;;23.00;99.90;;;;;;5075391;28;20318;-72
2023/08/26 10:27:12;;;;;;;0.47;0.40;;;23.00;99.90;;;;;;5075112;28;20305;-71
2023/08/26 10:29:40;;;;;;;1.20;0.60;;;22.90;99.90;;;;;;5074825;28;20230;-72
2023/08/26 10:32:18;;;;;;;0.50;0.40;;;22.80;99.90;;;;;;5075169;28;20243;-72
2023/08/26 10:34:54;;;;;;;1.67;0.63;;;22.70;99.90;;;;;;5074838;28;20639;-71
2023/08/26 10:37:25;;;;;;;0.47;0.40;;;22.80;99.90;;;;;;5075250;28;20284;-71
2023/08/26 10:39:52;;;;;;;2.05;0.40;;;22.90;99.90;;;;;;5074940;28;20303;-72
2023/08/26 10:42:20;;;;;;;0.80;0.52;;;22.90;99.90;;;;;;5075349;28;20203;-72
2023/08/26 10:44:48;;;;;;;1.05;0.63;;;22.80;99.90;;;;;;5074890;28;20261;-72
2023/08/26 10:47:38;;;;;;;0.57;0.50;;;22.90;99.90;;;;;;5075127;28;20231;-72
2023/08/26 10:50:19;;;;;;;1.30;0.50;;;23.00;99.90;;;;;;5074832;28;20203;-71
2023/08/26 10:52:46;;;;;;;0.70;0.47;;;23.00;99.90;;;;;;5074925;28;20215;-72
2023/08/26 10:55:19;;;;;;;0.55;0.40;;;23.00;99.90;;;;;;5074492;28;20273;-73
2023/08/26 10:58:02;;;;;;;0.98;0.50;;;22.80;99.90;;;;;;5074604;28;20206;-73
2023/08/26 11:00:29;;;;;;;1.23;0.57;;;22.90;99.90;;;;;;5074467;28;20288;-73
2023/08/26 11:02:58;;;;;;;3.78;0.77;;;22.80;99.90;;;;;;5074786;28;20254;-73
2023/08/26 11:05:25;;;;;;;0.63;0.30;;;22.60;99.90;;;;;;5074379;28;20266;-73
2023/08/26 11:07:52;;;;;;;1.00;0.57;;;22.20;99.90;;;;;;5074475;28;20200;-73
2023/08/26 11:10:28;;;;;;;0.60;0.40;;;22.40;99.90;;;;;;5074576;28;20230;-73
2023/08/26 11:12:55;;;;;;;1.08;0.50;;;22.50;99.90;;;;;;5074491;28;20602;-73
2023/08/26 11:15:23;;;;;;;1.33;0.50;;;22.60;99.90;;;;;;5073912;28;20321;-73
2023/08/26 11:17:50;;;;;;;1.05;0.43;;;22.70;99.90;;;;;;5073437;28;20290;-73
2023/08/26 11:20:19;;;;;;;0.88;0.50;;;22.60;99.90;;;;;;5074336;28;20239;-73
2023/08/26 11:22:46;;;;;;;0.68;0.40;;;22.70;99.90;;;;;;5074413;28;20242;-73
2023/08/26 11:25:14;;;;;;;1.30;0.50;;;22.70;99.90;;;;;;5074047;28;20262;-73
2023/08/26 11:27:41;;;;;;;0.68;0.50;;;22.70;99.90;;;;;;5074182;28;20199;-73
2023/08/26 11:30:10;;;;;;;0.40;0.38;;;22.60;99.90;;;;;;5074008;28;20242;-73
2023/08/26 11:32:38;;;;;;;0.93;0.40;;;22.70;99.90;;;;;;5073562;28;20207;-73
2023/08/26 11:35:06;;;;;;;0.50;0.35;;;22.50;99.90;;;;;;5073441;28;20730;-73
2023/08/26 11:37:36;;;;;;;1.50;0.43;;;22.40;99.90;;;;;;5073442;28;20234;-73
2023/08/26 11:40:06;;;;;;;0.80;0.40;;;22.40;99.90;;;;;;5073247;28;20211;-73
2023/08/26 11:42:33;;;;;;;0.50;0.40;;;22.50;99.90;;;;;;5073328;28;20199;-73
2023/08/26 11:44:59;;;;;;;0.70;0.47;;;22.50;99.90;;;;;;5072562;28;20759;-73
2023/08/26 11:47:27;;;;;;;1.00;0.40;;;22.40;99.90;;;;;;5072888;28;20235;-73
2023/08/26 11:49:55;;;;;;;0.50;0.40;;;22.50;99.90;;;;;;5072907;28;20290;-73
2023/08/26 11:52:23;;;;;;;0.73;0.52;;;22.60;99.90;;;;;;5072682;28;20203;-72
2023/08/26 11:54:53;;;;;;;0.70;0.30;;;22.70;99.90;;;;;;5072440;28;20269;-73
2023/08/26 11:57:24;;;;;;;0.68;0.40;;;22.60;99.90;;;;;;5072657;28;20699;-73
2023/08/26 11:59:50;;;;;;;0.30;0.30;;;22.40;99.90;;;;;;5072845;28;20235;-73
2023/08/26 12:02:22;;;;;;;0.57;0.38;;;22.60;99.90;;;;;;5073096;28;20238;-73
2023/08/26 12:04:56;;;;;;;0.93;0.40;;;22.70;99.90;;;;;;5073557;28;20233;-73
2023/08/26 12:07:23;;;;;;;0.82;0.40;;;22.70;99.90;;;;;;5072818;28;20680;-73
2023/08/26 12:09:50;;;;;;;3.33;0.52;;;22.80;99.90;;;;;;5073298;28;20565;-73
2023/08/26 12:12:20;;;;;;;0.40;0.30;;;22.90;99.90;;;;;;5073407;28;20241;-73
2023/08/26 12:14:47;;;;;;;0.38;0.30;;;23.00;99.90;;;;;;5072823;28;20321;-73
2023/08/26 12:17:14;;;;;;;0.30;0.30;;;22.80;99.90;;;;;;5073102;28;20199;-73
2023/08/26 12:19:42;;;;;;;0.80;0.40;;;22.60;99.90;;;;;;5073136;28;20294;-77
2023/08/26 12:22:11;;;;;;;0.68;0.40;;;22.80;99.90;;;;;;5077471;28;20591;-73
2023/08/26 12:24:38;;;;;;;0.85;0.40;;;23.00;99.90;;;;;;5093357;28;20261;-72
2023/08/26 12:27:09;;;;;;;1.38;0.38;;;23.00;99.90;;;;;;5093338;28;20245;-73
2023/08/26 12:29:38;;;;;;;0.57;0.30;;;23.00;99.90;;;;;;5092516;28;20246;-73
2023/08/26 12:32:05;;;;;;;1.05;0.40;;;22.90;99.90;;;;;;5092936;28;20210;-73
2023/08/26 12:34:33;;;;;;;1.30;0.40;;;23.00;99.90;;;;;;5092921;28;20242;-73
2023/08/26 12:37:00;;;;;;;0.20;0.20;;;23.10;99.90;;;;;;5093353;28;20230;-73
2023/08/26 12:39:27;;;;;;;1.67;0.20;;;23.00;99.90;;;;;;5093207;28;20245;-71
2023/08/26 12:41:54;;;;;;;1.23;0.40;;;23.00;99.90;;;;;;5093323;28;20742;-71
2023/08/26 12:44:23;;;;;;;0.60;0.20;;;22.90;99.90;;;;;;5092459;28;20272;-71
2023/08/26 12:46:52;;;;;;;0.40;0.28;;;22.70;99.90;;;;;;5092792;28;20202;-71
2023/08/26 12:49:19;;;;;;;0.45;0.30;;;22.80;99.90;;;;;;5093093;28;20230;-71
2023/08/26 12:51:46;;;;;;;1.23;0.50;;;22.90;99.90;;;;;;5093232;28;20237;-71
2023/08/26 12:54:12;;;;;;;0.32;0.30;;;22.60;99.90;;;;;;5093113;28;20328;-71
2023/08/26 12:56:39;;;;;;;2.75;0.30;;;22.60;99.90;;;;;;5092962;28;20972;-71
2023/08/26 12:59:10;;;;;;;1.38;0.40;;;22.50;99.90;;;;;;5092833;28;20245;-71
2023/08/26 13:01:37;;;;;;;1.77;0.40;;;22.60;99.90;;;;;;5092703;28;20206;-70
2023/08/26 13:04:06;;;;;;;1.23;0.45;;;22.70;99.90;;;;;;5092886;28;20230;-71
2023/08/26 13:06:33;;;;;;;0.60;0.30;;;22.70;99.90;;;;;;5092895;28;20206;-71
2023/08/26 13:08:59;;;;;;;2.35;0.30;;;22.50;99.90;;;;;;5092877;28;20206;-71
2023/08/26 13:11:26;;;;;;;0.93;0.30;;;22.40;99.90;;;;;;5092777;28;20233;-71
2023/08/26 13:13:53;;;;;;;0.35;0.30;;;22.40;99.90;;;;;;5092679;28;20314;-70
2023/08/26 13:16:20;;;;;;;0.30;0.30;;;22.50;99.90;;;;;;5092880;28;20233;-72
2023/08/26 13:18:47;;;;;;;0.50;0.30;;;22.60;99.90;;;;;;5092592;28;20238;-71
2023/08/26 13:21:15;;;;;;;0.47;0.30;;;22.80;99.90;;;;;;5092439;28;20289;-72
2023/08/26 13:23:42;;;;;;;0.60;0.30;;;22.90;99.90;;;;;;5092460;28;20234;-71
2023/08/26 13:26:09;;;;;;;0.57;0.30;;;23.00;99.90;;;;;;5092549;28;20293;-72
2023/08/26 13:28:36;;;;;;;0.70;0.40;;;22.90;99.90;;;;;;5092494;28;20293;-72
2023/08/26 13:31:03;;;;;;;0.47;0.28;;;22.60;99.90;;;;;;5092573;28;20289;-72
2023/08/26 13:33:30;;;;;;;0.30;0.30;;;22.50;99.90;;;;;;5092808;28;20257;-72
2023/08/26 13:35:57;;;;;;;0.73;0.30;;;22.60;99.90;;;;;;5092572;28;20291;-72
2023/08/26 13:38:25;;;;;;;1.23;0.30;;;22.90;99.90;;;;;;5092448;28;20665;-72
2023/08/26 13:40:52;;;;;;;0.32;0.22;;;23.00;99.90;;;;;;5094777;28;20234;-71
2023/08/26 13:43:19;;;;;;;0.30;0.20;;;22.90;99.90;;;;;;5095961;28;20724;-71
2023/08/26 13:45:45;;;;;;;1.02;0.30;;;22.80;99.90;;;;;;5096374;28;20677;-71
2023/08/26 13:48:12;;;;;;;0.50;0.30;;;22.90;99.90;;;;;;5096320;28;20233;-71
2023/08/26 13:50:39;;;;;;;0.40;0.30;;;22.90;99.90;;;;;;5096317;28;20235;-72
2023/08/26 13:53:06;;;;;;;0.20;0.20;;;22.90;99.90;;;;;;5096215;28;20245;-72
2023/08/26 13:55:35;;;;;;;1.85;0.40;;;23.00;99.90;;;;;;5096177;28;20573;-72
2023/08/26 13:58:02;;;;;;;0.38;0.30;;;23.20;99.90;;;;;;5095791;28;20693;-72
2023/08/26 14:00:28;;;;;;;0.70;0.30;;;23.20;99.90;;;;;;5095979;28;20238;-72
2023/08/26 14:02:55;;;;;;;2.35;0.30;;;23.20;99.90;;;;;;5095956;28;20242;-71
2023/08/26 14:05:23;;;;;;;0.52;0.50;;;23.00;99.90;;;;;;5095659;28;20253;-72
2023/08/26 14:07:50;;;;;;;0.82;0.30;;;22.70;99.90;;;;;;5095631;28;20207;-72
2023/08/26 14:10:17;;;;;;;0.40;0.30;;;22.60;99.90;;;;;;5095748;28;20230;-71
2023/08/26 14:12:45;;;;;;;0.73;0.30;;;22.40;99.90;;;;;;5095703;28;20245;-72
2023/08/26 14:15:12;;;;;;;1.90;0.32;;;22.20;99.90;;;;;;5095671;28;20273;-72
2023/08/26 14:17:39;;;;;;;0.75;0.32;;;22.00;99.90;;;;;;5095996;28;20206;-72
2023/08/26 14:20:08;;;;;;;0.50;0.40;;;22.10;99.90;;;;;;5095626;28;20203;-72
2023/08/26 14:22:34;;;;;;;0.68;0.30;;;22.00;99.90;;;;;;5095630;28;20684;-72
2023/08/26 14:25:01;;;;;;;2.08;0.45;;;22.10;99.90;;;;;;5095684;28;20627;-72
2023/08/26 14:27:28;;;;;;;1.30;0.40;;;22.00;99.90;;;;;;5095820;28;20230;-72
2023/08/26 14:29:56;;;;;;;1.25;0.40;;;22.00;99.90;;;;;;5095578;28;20282;-72
2023/08/26 14:32:23;;;;;;;0.60;0.30;;;21.90;99.90;;;;;;5095578;28;20672;-72
2023/08/26 14:34:50;;;;;;;1.58;0.30;;;21.80;99.90;;;;;;5095381;28;20230;-72
2023/08/26 14:37:17;;;;;;;0.52;0.32;;;22.00;99.90;;;;;;5095352;28;20241;-72
2023/08/26 14:39:44;;;;;;;0.82;0.35;;;22.00;99.90;;;;;;5095504;28;20249;-72
2023/08/26 14:42:11;;;;;;;0.60;0.30;;;22.20;99.90;;;;;;5095395;28;20242;-72
2023/08/26 14:44:38;;;;;;;0.80;0.50;;;22.50;99.90;;;;;;5094728;28;20257;-73
2023/08/26 14:47:06;;;;;;;0.75;0.30;;;22.70;99.90;;;;;;5095096;28;20242;-73
2023/08/26 14:49:33;;;;;;;1.45;0.40;;;22.70;99.90;;;;;;5094977;28;20207;-73
2023/08/26 14:52:00;;;;;;;1.45;0.35;;;22.70;99.90;;;;;;5094723;28;20246;-72
2023/08/26 14:54:27;;;;;;;1.25;0.50;;;22.50;99.90;;;;;;5094524;28;20291;-73
2023/08/26 14:56:54;;;;;;;1.15;0.32;;;22.50;99.90;;;;;;5094849;28;20719;-73
2023/08/26 14:59:20;;;;;;;0.45;0.30;;;22.40;99.90;;;;;;5094837;28;20241;-72
2023/08/26 15:01:47;;;;;;;0.40;0.30;;;22.30;99.90;;;;;;5095194;28;20234;-73
2023/08/26 15:04:16;;;;;;;1.38;0.30;;;22.30;99.90;;;;;;5094631;28;20265;-72
2023/08/26 15:06:43;;;;;;;0.80;0.30;;;22.50;99.90;;;;;;5094632;28;20237;-73
2023/08/26 15:09:10;;;;;;;0.40;0.30;;;22.70;99.90;;;;;;5094575;28;20245;-73
2023/08/26 15:11:37;;;;;;;0.30;0.30;;;22.70;99.90;;;;;;5094459;28;20237;-73
2023/08/26 15:14:04;;;;;;;1.45;0.40;;;22.70;99.90;;;;;;5094388;28;20253;-72
2023/08/26 15:16:31;;;;;;;1.15;0.30;;;22.70;99.90;;;;;;5094428;28;20234;-74
2023/08/26 15:18:57;;;;;;;0.70;0.35;;;22.80;99.90;;;;;;5094621;28;20723;-73
2023/08/26 15:21:26;;;;;;;2.47;0.40;;;22.90;99.90;;;;;;5094546;28;20728;-72
2023/08/26 15:23:53;;;;;;;1.20;0.30;;;22.90;99.90;;;;;;5094639;28;20313;-73
2023/08/26 15:26:20;;;;;;;0.20;0.20;;;22.90;99.90;;;;;;5094281;28;20199;-73
2023/08/26 15:28:47;;;;;;;0.73;0.40;;;22.80;99.90;;;;;;5071062;28;20650;-72
2023/08/26 15:31:14;;;;;;;0.50;0.30;;;22.70;99.90;;;;;;5074004;28;20622;-73
2023/08/26 15:33:40;;;;;;;0.40;0.22;;;22.70;99.90;;;;;;5073809;28;20301;-72
2023/08/26 15:36:07;;;;;;;1.08;0.30;;;22.90;99.90;;;;;;5074045;28;20267;-71
2023/08/26 15:38:36;;;;;;;1.25;0.38;;;23.00;99.90;;;;;;5073809;28;20235;-72
2023/08/26 15:41:04;;;;;;;0.40;0.30;;;23.10;99.90;;;;;;5073551;28;20688;-73
2023/08/26 15:43:33;;;;;;;1.10;0.30;;;23.10;99.90;;;;;;5073742;28;20207;-72
2023/08/26 15:46:00;;;;;;;1.42;0.30;;;23.10;99.90;;;;;;5073568;28;20294;-73
2023/08/26 15:48:27;;;;;;;0.28;0.28;;;23.00;99.90;;;;;;5073999;28;20231;-73
2023/08/26 15:50:54;;;;;;;0.68;0.30;;;23.10;99.90;;;;;;5073859;28;20199;-74
2023/08/26 15:53:21;;;;;;;0.47;0.38;;;23.00;99.90;;;;;;5073547;28;20247;-72
2023/08/26 15:55:49;;;;;;;0.30;0.20;;;22.90;99.90;;;;;;5073739;28;20246;-73
2023/08/26 15:58:16;;;;;;;0.80;0.50;;;22.80;99.90;;;;;;5073230;28;20293;-73
2023/08/26 16:00:43;;;;;;;0.82;0.40;;;22.70;99.90;;;;;;5073338;28;20219;-73
2023/08/26 16:03:10;;;;;;;2.35;0.43;;;22.70;99.90;;;;;;5072920;28;20238;-71
2023/08/26 16:05:38;;;;;;;1.88;0.30;;;22.80;99.90;;;;;;5073200;28;20254;-72
2023/08/26 16:08:06;;;;;;;0.45;0.30;;;22.80;99.90;;;;;;5073558;28;20242;-71
2023/08/26 16:10:34;;;;;;;0.57;0.35;;;23.00;99.90;;;;;;5073295;28;20238;-71
2023/08/26 16:13:03;;;;;;;2.63;0.40;;;23.00;99.90;;;;;;5073038;28;20243;-71
2023/08/26 16:15:30;;;;;;;0.50;0.30;;;22.80;99.90;;;;;;5072888;28;20231;-71
2023/08/26 16:17:57;;;;;;;1.20;0.82;;;22.60;99.90;;;;;;5073161;28;20662;-72
2023/08/26 16:20:24;;;;;;;0.65;0.30;;;22.60;99.90;;;;;;5073310;28;20246;-72
2023/08/26 16:22:51;;;;;;;1.77;0.60;;;22.60;99.90;;;;;;5073233;28;20235;-72
2023/08/26 16:25:18;;;;;;;1.58;1.05;;;22.60;99.90;;;;;;5073058;28;20638;-72
2023/08/26 16:27:46;;;;;;;0.90;0.35;;;22.50;99.90;;;;;;5072923;28;20241;-72
2023/08/26 16:30:14;;;;;;;1.70;0.40;;;22.30;99.90;;;;;;5073193;28;20199;-72
2023/08/26 16:32:42;;;;;;;0.68;0.40;;;22.10;99.90;;;;;;5073220;28;20255;-73
2023/08/26 16:35:10;;;;;;;1.85;0.30;;;22.10;99.90;;;;;;5072943;28;20224;-72
2023/08/26 16:37:37;;;;;;;0.75;0.32;;;22.20;99.90;;;;;;5073048;28;20256;-73
2023/08/26 16:40:05;;;;;;;0.77;0.40;;;22.20;99.90;;;;;;5072734;28;20734;-72
2023/08/26 16:42:32;;;;;;;0.70;0.40;;;22.10;99.90;;;;;;5073210;28;20325;-73
2023/08/26 16:44:58;;;;;;;0.70;0.38;;;22.20;99.90;;;;;;5072855;28;20266;-73
2023/08/26 16:47:27;;;;;;;0.82;0.32;;;22.30;99.90;;;;;;5072674;28;20241;-72
2023/08/26 16:49:54;;;;;;;1.00;0.57;;;22.50;99.90;;;;;;5072991;28;20219;-72
2023/08/26 16:52:20;;;;;;;1.10;0.43;;;22.40;99.90;;;;;;5073167;28;20243;-71
2023/08/26 16:54:48;;;;;;;0.70;0.55;;;22.40;99.90;;;;;;5072318;28;20273;-72
2023/08/26 16:57:15;;;;;;;1.60;0.45;;;22.30;99.90;;;;;;5072841;28;20235;-73
2023/08/26 16:59:42;;;;;;;0.88;0.40;;;22.20;99.90;;;;;;5072434;28;20241;-71
2023/08/26 17:02:09;;;;;;;0.80;0.50;;;22.20;99.90;;;;;;5072834;28;20235;-72
2023/08/26 17:04:37;;;;;;;0.70;0.50;;;22.10;99.90;;;;;;5072405;28;20258;-71
2023/08/26 17:07:04;;;;;;;2.00;0.50;;;22.10;99.90;;;;;;5072521;28;20250;-72
2023/08/26 17:09:31;;;;;;;1.13;0.50;;;21.90;99.90;;;;;;5072481;28;20246;-72
2023/08/26 17:11:58;;;;;;;1.17;0.52;;;21.80;99.90;;;;;;5072485;28;20242;-72
2023/08/26 17:14:26;;;;;;;1.58;0.63;;;21.80;99.90;;;;;;5072437;28;20270;-72
2023/08/26 17:16:52;;;;;;;1.13;0.60;;;21.70;99.90;;;;;;5076479;28;20266;-71
2023/08/26 17:19:19;;;;;;;1.25;0.50;;;21.70;99.90;;;;;;5076871;28;20210;-71
2023/08/26 17:21:48;;;;;;;0.68;0.38;;;21.60;99.90;;;;;;5076626;28;20239;-72
2023/08/26 17:24:14;;;;;;;0.55;0.32;;;21.50;99.90;;;;;;5076658;28;20263;-72
2023/08/26 17:26:41;;;;;;;0.80;0.50;;;21.40;99.90;;;;;;5076366;28;20234;-72
2023/08/26 17:29:08;;;;;;;3.10;0.50;;;21.40;99.90;;;;;;5076163;28;20246;-72
2023/08/26 17:31:35;;;;;;;0.70;0.30;;;21.40;99.90;;;;;;5076355;28;20203;-72
2023/08/26 17:34:02;;;;;;;1.30;0.60;;;21.40;99.90;;;;;;5076320;28;20262;-72
2023/08/26 17:36:31;;;;;;;0.88;0.50;;;21.30;99.90;;;;;;5076197;28;20776;-73
2023/08/26 17:38:59;;;;;;;0.40;0.30;;;21.30;99.90;;;;;;5076346;28;20609;-73
2023/08/26 17:41:26;;;;;;;1.23;0.57;;;21.20;99.90;;;;;;5076384;28;20242;-73
2023/08/26 17:43:52;;;;;;;2.55;0.40;;;21.20;99.90;;;;;;5075973;28;20754;-72
2023/08/26 17:46:21;;;;;;;0.73;0.40;;;21.10;99.90;;;;;;5075809;28;20294;-72
2023/08/26 17:48:49;;;;;;;1.85;0.60;;;20.90;99.90;;;;;;5076007;28;20654;-71
2023/08/26 17:51:15;;;;;;;1.27;0.52;;;20.80;99.90;;;;;;5075921;28;20231;-72
2023/08/26 17:53:43;;;;;;;0.80;0.47;;;20.80;99.90;;;;;;5075957;28;20303;-71
2023/08/26 17:56:11;;;;;;;0.73;0.40;;;20.90;99.90;;;;;;5076279;28;20231;-72
2023/08/26 17:58:38;;;;;;;3.13;0.80;;;20.80;99.90;;;;;;5075992;28;20210;-72
2023/08/26 18:01:05;;;;;;;1.30;0.80;;;20.70;99.90;;;;;;5075882;28;20621;-72
2023/08/26 18:03:32;;;;;;;1.35;0.70;;;20.30;99.90;;;;;;5075703;28;20730;-72
2023/08/26 18:05:59;;;;;;;1.48;0.93;;;19.60;99.90;;;;;;5075704;28;20239;-72
2023/08/26 18:08:26;;;;;;;1.13;0.47;;;19.00;99.90;;;;;;5075711;28;20283;-72
2023/08/26 18:10:52;;;;;;;1.92;0.68;;;18.60;99.90;;;;;;5075482;28;20243;-73
2023/08/26 18:13:21;;;;;;;1.48;0.57;;;18.20;99.90;;;;;;5075404;28;20234;-72
2023/08/26 18:15:48;;;;;;;0.98;0.45;;;18.00;99.90;;;;;;5075211;28;20266;-72
2023/08/26 18:18:14;;;;;;;1.53;0.50;;;17.80;99.90;;;;;;5075197;28;20231;-72
2023/08/26 18:20:42;;;;;;;1.40;0.60;;;17.70;99.90;;;;;;5075524;28;20235;-73
2023/08/26 18:23:08;;;;;;;1.33;0.70;;;17.60;99.90;;;;;;5075506;28;20203;-73
2023/08/26 18:25:35;;;;;;;1.00;0.57;;;17.60;99.90;;;;;;5074650;28;20740;-72
2023/08/26 18:28:02;;;;;;;1.98;0.60;;;17.60;99.90;;;;;;5075006;28;20294;-72
2023/08/26 18:30:31;;;;;;;1.13;0.70;;;17.60;99.90;;;;;;5075130;28;20243;-72
2023/08/26 18:32:57;;;;;;;4.00;0.53;;;17.50;99.90;;;;;;5075428;28;20286;-72
2023/08/26 18:35:24;;;;;;;0.97;0.60;;;17.60;99.90;;;;;;5074571;28;20255;-73
2023/08/26 18:37:51;;;;;;;1.58;0.75;;;17.60;99.90;;;;;;5074929;28;20274;-72
2023/08/26 18:40:19;;;;;;;5.37;1.80;;;17.60;99.90;;;;;;5075198;28;20696;-72
2023/08/26 18:42:47;;;;;;;1.40;1.00;;;17.60;99.90;;;;;;5075060;28;20257;-72
2023/08/26 18:45:14;;;;;;;3.00;1.30;;;17.50;99.90;;;;;;5074820;28;20223;-72
2023/08/26 18:47:42;;;;;;;2.00;1.10;;;17.40;99.90;;;;;;5075162;28;20231;-73
2023/08/26 18:50:09;;;;;;;1.07;0.70;;;17.40;99.90;;;;;;5075058;28;20249;-73
2023/08/26 18:52:36;;;;;;;3.03;1.30;;;17.30;99.90;;;;;;5074856;28;20682;-73
2023/08/26 18:55:03;;;;;;;3.23;1.50;;;17.30;99.90;;;;;;5075498;28;20262;-73
2023/08/26 18:57:30;;;;;;;2.47;1.30;;;17.30;99.90;;;;;;5074880;28;20262;-73
2023/08/26 18:59:57;;;;;;;2.33;1.43;;;17.10;99.90;;;;;;5074766;28;20294;-72
2023/08/26 19:02:24;;;;;;;2.30;1.00;;;17.10;99.90;;;;;;5074744;28;20204;-72
2023/08/26 19:04:52;;;;;;;1.77;0.87;;;17.10;99.90;;;;;;5074687;28;20227;-72
2023/08/26 19:07:19;;;;;;;1.10;0.60;;;17.00;99.90;;;;;;5074712;28;20253;-73
2023/08/26 19:09:46;;;;;;;1.00;0.70;;;16.90;99.90;;;;;;5074986;28;20239;-72
2023/08/26 19:12:13;;;;;;;1.40;0.90;;;16.80;99.90;;;;;;5074296;28;20637;-73
2023/08/26 19:14:40;;;;;;;1.47;0.70;;;16.90;99.90;;;;;;5074789;28;20642;-73
2023/08/26 19:17:07;;;;;;;1.97;1.03;;;16.90;99.90;;;;;;5074709;28;20317;-73
2023/08/26 19:19:34;;;;;;;1.37;0.80;;;16.80;99.90;;;;;;5074692;28;20203;-73
2023/08/26 19:22:02;;;;;;;1.97;0.80;;;16.80;99.90;;;;;;5074249;28;20249;-72
2023/08/26 19:24:29;;;;;;;1.20;0.80;;;16.80;99.90;;;;;;5074029;28;20219;-73
2023/08/26 19:26:57;;;;;;;1.07;0.67;;;16.80;99.90;;;;;;5074186;28;20239;-73
2023/08/26 19:29:24;;;;;;;0.90;0.80;;;16.70;99.90;;;;;;5074175;28;20199;-72
2023/08/26 19:31:51;;;;;;;2.80;1.00;;;16.60;99.90;;;;;;5074340;28;20239;-72
2023/08/26 19:34:18;;;;;;;4.63;1.43;;;16.60;99.90;;;;;;5073986;28;20255;-73
2023/08/26 19:36:45;;;;;;;2.63;0.90;;;16.50;99.90;;;;;;5073593;28;20263;-72
2023/08/26 19:39:14;;;;;;;1.60;1.00;;;16.40;99.90;;;;;;5073360;28;20242;-72
2023/08/26 19:41:41;;;;;;;1.07;0.90;;;16.50;99.90;;;;;;5073668;28;20199;-72
2023/08/26 19:44:09;;;;;;;2.83;0.80;;;16.50;99.90;;;;;;5073489;28;20306;-73
2023/08/26 19:46:36;;;;;;;2.30;0.93;;;16.50;99.90;;;;;;5073788;28;20287;-72
2023/08/26 19:49:04;;;;;;;2.77;0.83;;;16.40;99.90;;;;;;5073600;28;20704;-73